createdAt,value
2022-09-18T00:01:51.067Z,9.00
2022-09-18T00:04:23.857Z,9.20
2022-09-18T00:06:55.719Z,9.20
2022-09-18T00:09:30.074Z,9.10
2022-09-18T00:12:03.155Z,9.10
2022-09-18T00:14:35.680Z,9.10
2022-09-18T00:17:12.377Z,9.10
2022-09-18T00:19:44.440Z,9.10
2022-09-18T00:22:18.817Z,9.00
2022-09-18T00:24:52.681Z,9.00
2022-09-18T00:27:26.721Z,9.00
2022-09-18T00:30:00.720Z,8.90
2022-09-18T00:32:37.128Z,8.90
2022-09-18T00:35:08.829Z,8.80
2022-09-18T00:37:43.743Z,8.80
2022-09-18T00:40:18.943Z,9.10
2022-09-18T00:42:50.715Z,8.90
2022-09-18T00:45:24.529Z,8.80
2022-09-18T00:48:01.366Z,9.10
2022-09-18T00:50:35.427Z,8.70
2022-09-18T00:53:09.608Z,8.90
2022-09-18T00:55:43.753Z,8.70
2022-09-18T00:58:17.853Z,8.90
2022-09-18T01:00:51.584Z,8.70
2022-09-18T01:03:28.796Z,8.80
2022-09-18T01:06:06.699Z,8.70
2022-09-18T01:08:45.120Z,8.60
2022-09-18T01:11:28.003Z,8.60
2022-09-18T01:14:07.163Z,8.60
2022-09-18T01:16:44.270Z,8.60
2022-09-18T01:19:29.345Z,8.60
2022-09-18T01:22:08.108Z,8.60
2022-09-18T01:24:40.740Z,8.50
2022-09-18T01:27:16.454Z,8.50
2022-09-18T01:29:56.293Z,8.50
2022-09-18T01:32:31.102Z,8.50
2022-09-18T01:35:14.027Z,8.50
2022-09-18T01:37:58.833Z,8.50
2022-09-18T01:40:33.239Z,8.50
2022-09-18T01:43:08.877Z,8.50
2022-09-18T01:45:47.714Z,8.50
2022-09-18T01:48:28.642Z,8.60
2022-09-18T01:51:07.402Z,8.60
2022-09-18T01:53:43.032Z,8.80
2022-09-18T01:56:16.929Z,8.70
2022-09-18T01:58:51.573Z,8.90
2022-09-18T02:01:31.578Z,8.70
2022-09-18T02:04:07.257Z,8.80
2022-09-18T02:06:41.375Z,8.80
2022-09-18T02:09:14.846Z,8.90
2022-09-18T02:11:51.037Z,8.90
2022-09-18T02:14:26.841Z,9.00
2022-09-18T02:17:13.479Z,9.00
2022-09-18T02:19:49.231Z,9.00
2022-09-18T02:22:24.504Z,9.00
2022-09-18T02:25:02.140Z,9.10
2022-09-18T02:27:36.596Z,9.10
2022-09-18T02:30:12.678Z,9.20
2022-09-18T02:32:47.563Z,9.20
2022-09-18T02:35:21.796Z,9.20
2022-09-18T02:37:58.705Z,9.30
2022-09-18T02:40:38.491Z,9.30
2022-09-18T02:43:21.474Z,9.30
2022-09-18T02:45:57.452Z,9.30
2022-09-18T02:48:40.659Z,9.40
2022-09-18T02:51:18.835Z,9.40
2022-09-18T02:53:57.727Z,9.50
2022-09-18T02:56:34.913Z,9.40
2022-09-18T02:59:11.535Z,9.40
2022-09-18T03:01:45.526Z,9.40
2022-09-18T03:04:27.240Z,9.50
2022-09-18T03:07:05.875Z,9.50
2022-09-18T03:09:49.066Z,9.50
2022-09-18T03:12:22.692Z,9.60
2022-09-18T03:15:01.616Z,9.60
2022-09-18T03:17:36.084Z,9.50
2022-09-18T03:20:09.289Z,9.50
2022-09-18T03:22:46.810Z,9.60
2022-09-18T03:25:20.250Z,9.60
2022-09-18T03:27:58.000Z,9.60
2022-09-18T03:30:41.660Z,9.60
2022-09-18T03:33:15.146Z,9.70
2022-09-18T03:35:51.108Z,9.60
2022-09-18T03:38:29.925Z,9.70
2022-09-18T03:41:04.998Z,9.70
2022-09-18T03:43:39.022Z,9.70
2022-09-18T03:46:14.231Z,9.70
2022-09-18T03:48:49.628Z,9.70
2022-09-18T03:51:28.306Z,9.70
2022-09-18T03:54:04.387Z,9.70
2022-09-18T03:56:55.689Z,9.80
2022-09-18T03:59:43.606Z,9.80
2022-09-18T04:02:34.630Z,9.90
2022-09-18T04:05:25.638Z,9.80
2022-09-18T04:08:35.439Z,9.80
2022-09-18T04:11:25.904Z,9.80
2022-09-18T04:13:58.031Z,9.80
2022-09-18T04:16:30.585Z,9.80
2022-09-18T04:19:04.575Z,9.80
2022-09-18T04:21:36.733Z,9.80
2022-09-18T04:24:10.606Z,9.80
2022-09-18T04:26:50.211Z,9.80
2022-09-18T04:29:28.106Z,9.80
2022-09-18T04:32:00.706Z,9.80
2022-09-18T04:34:33.899Z,9.80
2022-09-18T04:37:10.214Z,9.80
2022-09-18T04:39:47.379Z,9.80
2022-09-18T04:42:23.231Z,9.80
2022-09-18T04:44:57.567Z,9.80
2022-09-18T04:47:31.891Z,9.80
2022-09-18T04:50:04.790Z,9.90
2022-09-18T04:52:38.799Z,9.80
2022-09-18T04:55:12.263Z,9.80
2022-09-18T04:57:54.393Z,9.80
2022-09-18T05:00:28.962Z,9.80
2022-09-18T05:03:04.857Z,9.80
2022-09-18T05:05:39.694Z,9.80
2022-09-18T05:08:12.924Z,9.80
2022-09-18T05:10:46.200Z,9.80
2022-09-18T05:13:24.947Z,9.80
2022-09-18T05:16:10.885Z,9.80
2022-09-18T05:18:45.041Z,9.80
2022-09-18T05:21:18.714Z,9.80
2022-09-18T05:23:51.773Z,9.90
2022-09-18T05:26:23.823Z,9.90
2022-09-18T05:29:00.270Z,9.90
2022-09-18T05:31:35.889Z,10.00
2022-09-18T05:34:09.346Z,10.00
2022-09-18T05:36:42.796Z,10.00
2022-09-18T05:39:19.748Z,10.00
2022-09-18T05:41:56.794Z,10.10
2022-09-18T05:44:34.198Z,10.10
2022-09-18T05:47:07.806Z,10.10
2022-09-18T05:49:45.922Z,10.10
2022-09-18T05:52:20.528Z,10.20
2022-09-18T05:54:55.070Z,10.20
2022-09-18T05:57:30.999Z,10.10
2022-09-18T06:00:06.039Z,10.20
2022-09-18T06:02:43.004Z,10.20
2022-09-18T06:05:19.500Z,10.30
2022-09-18T06:07:55.443Z,10.30
2022-09-18T06:10:33.239Z,10.30
2022-09-18T06:13:08.577Z,10.40
2022-09-18T06:15:55.282Z,10.50
2022-09-18T06:18:41.503Z,10.50
2022-09-18T06:21:15.280Z,10.50
2022-09-18T06:23:50.648Z,10.60
2022-09-18T06:26:33.017Z,10.60
2022-09-18T06:29:06.544Z,10.60
2022-09-18T06:31:55.560Z,10.60
2022-09-18T06:34:35.498Z,10.70
2022-09-18T06:37:13.157Z,10.70
2022-09-18T06:40:08.299Z,10.70
2022-09-18T06:43:00.390Z,10.70
2022-09-18T06:46:00.434Z,11.10
2022-09-18T06:48:46.437Z,10.70
2022-09-18T06:51:21.328Z,10.70
2022-09-18T06:54:19.149Z,10.70
2022-09-18T06:56:53.140Z,10.70
2022-09-18T06:59:41.124Z,10.50
2022-09-18T07:02:19.724Z,10.70
2022-09-18T07:05:07.277Z,10.70
2022-09-18T07:07:47.344Z,10.60
2022-09-18T07:10:25.068Z,10.60
2022-09-18T07:13:00.900Z,10.60
2022-09-18T07:15:37.434Z,10.60
2022-09-18T07:18:14.397Z,11.00
2022-09-18T07:20:52.664Z,10.60
2022-09-18T07:23:39.526Z,10.60
2022-09-18T07:26:15.159Z,10.70
2022-09-18T07:28:47.467Z,10.70
2022-09-18T07:31:35.806Z,10.70
2022-09-18T07:34:12.640Z,10.80
2022-09-18T07:36:52.731Z,10.80
2022-09-18T07:39:26.240Z,10.90
2022-09-18T07:42:22.726Z,10.90
2022-09-18T07:45:02.575Z,11.00
2022-09-18T07:47:38.822Z,11.10
2022-09-18T07:50:17.328Z,11.20
2022-09-18T07:52:56.940Z,11.40
2022-09-18T07:55:39.373Z,11.50
2022-09-18T07:58:14.114Z,11.70
2022-09-18T08:01:10.524Z,12.30
2022-09-18T08:03:53.311Z,12.20
2022-09-18T08:06:28.910Z,12.30
2022-09-18T08:09:37.607Z,12.30
2022-09-18T08:12:30.143Z,12.30
2022-09-18T08:15:28.951Z,12.80
2022-09-18T08:18:24.591Z,12.20
2022-09-18T08:21:10.591Z,12.20
2022-09-18T08:23:53.101Z,12.10
2022-09-18T08:26:31.686Z,12.20
2022-09-18T08:29:10.620Z,12.30
2022-09-18T08:31:43.598Z,12.00
2022-09-18T08:34:17.869Z,12.00
2022-09-18T08:36:56.868Z,12.00
2022-09-18T08:39:40.529Z,11.90
2022-09-18T08:42:30.090Z,11.90
2022-09-18T08:45:10.909Z,11.90
2022-09-18T08:47:51.660Z,11.80
2022-09-18T08:50:27.216Z,11.80
2022-09-18T08:53:06.868Z,11.70
2022-09-18T08:55:54.710Z,12.20
2022-09-18T08:58:46.654Z,11.50
2022-09-18T09:01:24.758Z,11.50
2022-09-18T09:04:13.821Z,11.40
2022-09-18T09:06:53.072Z,11.30
2022-09-18T09:09:50.178Z,11.40
2022-09-18T09:12:28.839Z,11.30
2022-09-18T09:15:21.814Z,11.30
2022-09-18T09:18:00.887Z,11.30
2022-09-18T09:20:45.783Z,11.30
2022-09-18T09:23:23.422Z,10.80
2022-09-18T09:26:03.411Z,11.10
2022-09-18T09:28:59.483Z,11.10
2022-09-18T09:32:08.680Z,11.10
2022-09-18T09:35:23.761Z,11.10
2022-09-18T09:38:32.527Z,11.10
2022-09-18T09:41:10.987Z,11.10
2022-09-18T09:43:46.627Z,11.10
2022-09-18T09:46:25.283Z,11.20
2022-09-18T09:49:04.649Z,11.10
2022-09-18T09:51:42.561Z,11.20
2022-09-18T09:54:20.325Z,11.20
2022-09-18T09:56:57.524Z,11.10
2022-09-18T09:59:34.491Z,11.10
2022-09-18T10:02:39.236Z,11.30
2022-09-18T10:05:22.526Z,11.10
2022-09-18T10:08:00.256Z,11.10
2022-09-18T10:10:35.161Z,11.10
2022-09-18T10:13:13.475Z,11.00
2022-09-18T10:15:48.740Z,11.20
2022-09-18T10:18:30.980Z,11.00
2022-09-18T10:21:10.833Z,11.00
2022-09-18T10:23:45.639Z,11.00
2022-09-18T10:26:23.764Z,11.10
2022-09-18T10:28:56.271Z,11.10
2022-09-18T10:31:29.988Z,11.10
2022-09-18T10:34:04.879Z,11.10
2022-09-18T10:36:42.777Z,11.10
2022-09-18T10:39:34.521Z,11.10
2022-09-18T10:42:17.637Z,11.10
2022-09-18T10:44:56.790Z,11.10
2022-09-18T10:47:36.956Z,11.10
2022-09-18T10:50:19.353Z,11.20
2022-09-18T10:52:57.593Z,11.20
2022-09-18T10:55:38.906Z,11.30
2022-09-18T10:58:17.458Z,11.30
2022-09-18T11:00:59.998Z,11.30
2022-09-18T11:03:43.990Z,11.30
2022-09-18T11:06:24.222Z,11.40
2022-09-18T11:09:03.827Z,11.40
2022-09-18T11:11:41.142Z,11.50
2022-09-18T11:14:26.509Z,11.50
2022-09-18T11:17:07.214Z,11.40
2022-09-18T11:19:54.381Z,11.40
2022-09-18T11:22:42.316Z,11.30
2022-09-18T11:25:30.424Z,11.20
2022-09-18T11:28:24.764Z,11.30
2022-09-18T11:31:03.799Z,11.30
2022-09-18T11:33:41.426Z,11.40
2022-09-18T11:36:17.485Z,11.50
2022-09-18T11:38:48.553Z,11.60
2022-09-18T11:41:33.015Z,11.70
2022-09-18T11:44:08.146Z,11.70
2022-09-18T11:46:41.374Z,11.80
2022-09-18T11:49:18.252Z,11.70
2022-09-18T11:51:54.133Z,11.80
2022-09-18T11:54:32.147Z,11.70
2022-09-18T11:57:05.204Z,11.80
2022-09-18T11:59:45.879Z,11.80
2022-09-18T12:02:23.400Z,11.80
2022-09-18T12:04:56.344Z,11.90
2022-09-18T12:07:38.421Z,12.00
2022-09-18T12:10:18.622Z,12.00
2022-09-18T12:12:55.044Z,12.10
2022-09-18T12:15:31.901Z,12.20
2022-09-18T12:18:11.882Z,12.20
2022-09-18T12:20:55.854Z,12.30
2022-09-18T12:23:32.447Z,12.50
2022-09-18T12:26:14.536Z,12.50
2022-09-18T12:29:11.678Z,12.60
2022-09-18T12:31:53.748Z,12.70
2022-09-18T12:34:31.896Z,12.90
2022-09-18T12:37:10.526Z,13.00
2022-09-18T12:40:07.901Z,13.20
2022-09-18T12:42:45.390Z,13.30
2022-09-18T12:46:15.678Z,13.40
2022-09-18T12:49:16.931Z,13.50
2022-09-18T12:51:55.546Z,13.60
2022-09-18T12:54:27.766Z,13.60
2022-09-18T12:57:12.063Z,13.70
2022-09-18T12:59:54.407Z,13.70
2022-09-18T13:02:49.303Z,13.70
2022-09-18T13:05:28.289Z,13.80
2022-09-18T13:08:06.426Z,13.80
2022-09-18T13:10:41.200Z,13.70
2022-09-18T13:13:18.403Z,13.70
2022-09-18T13:15:59.741Z,13.80
2022-09-18T13:18:37.932Z,13.80
2022-09-18T13:21:20.736Z,13.90
2022-09-18T13:23:55.626Z,13.90
2022-09-18T13:26:31.543Z,13.80
2022-09-18T13:29:04.620Z,13.80
2022-09-18T13:31:40.252Z,13.80
2022-09-18T13:34:20.297Z,13.80
2022-09-18T13:36:57.052Z,13.80
2022-09-18T13:39:50.170Z,13.70
2022-09-18T13:42:33.377Z,13.50
2022-09-18T13:45:17.061Z,13.50
2022-09-18T13:48:05.952Z,13.40
2022-09-18T13:50:40.811Z,13.30
2022-09-18T13:53:33.964Z,13.30
2022-09-18T13:56:08.715Z,13.20
2022-09-18T13:58:54.725Z,13.10
2022-09-18T14:02:03.222Z,13.10
2022-09-18T14:05:12.982Z,13.10
2022-09-18T14:08:39.310Z,13.20
2022-09-18T14:11:16.260Z,13.40
2022-09-18T14:13:52.237Z,13.50
2022-09-18T14:16:33.302Z,13.50
2022-09-18T14:19:31.599Z,13.40
2022-09-18T14:22:06.576Z,13.40
2022-09-18T14:25:03.693Z,13.30
2022-09-18T14:28:10.388Z,13.30
2022-09-18T14:30:47.452Z,13.30
2022-09-18T14:33:21.428Z,13.40
2022-09-18T14:36:02.037Z,13.40
2022-09-18T14:38:37.471Z,13.40
2022-09-18T14:41:19.570Z,13.40
2022-09-18T14:43:56.120Z,13.40
2022-09-18T14:46:30.041Z,13.40
2022-09-18T14:49:05.030Z,13.50
2022-09-18T14:52:00.525Z,13.50
2022-09-18T14:54:33.022Z,13.50
2022-09-18T14:57:09.321Z,13.50
2022-09-18T14:59:41.881Z,13.50
2022-09-18T15:02:27.432Z,13.50
2022-09-18T15:05:03.807Z,13.50
2022-09-18T15:07:41.104Z,13.50
2022-09-18T15:10:17.186Z,13.50
2022-09-18T15:12:54.456Z,13.50
2022-09-18T15:15:36.031Z,13.50
2022-09-18T15:18:17.474Z,13.60
2022-09-18T15:20:54.179Z,13.60
2022-09-18T15:23:29.870Z,13.50
2022-09-18T15:26:06.679Z,13.50
2022-09-18T15:28:45.559Z,13.50
2022-09-18T15:31:23.101Z,13.40
2022-09-18T15:33:58.144Z,13.40
2022-09-18T15:36:35.512Z,13.30
2022-09-18T15:39:10.916Z,13.20
2022-09-18T15:41:46.538Z,13.20
2022-09-18T15:45:07.529Z,13.20
2022-09-18T15:47:43.676Z,13.00
2022-09-18T15:50:34.229Z,12.80
2022-09-18T15:53:25.665Z,12.70
2022-09-18T15:56:04.711Z,12.50
2022-09-18T15:58:38.375Z,12.40
2022-09-18T16:01:22.958Z,12.40
2022-09-18T16:04:18.282Z,12.40
2022-09-18T16:06:57.141Z,12.40
2022-09-18T16:09:40.509Z,12.40
2022-09-18T16:12:11.431Z,12.30
2022-09-18T16:14:47.986Z,12.40
2022-09-18T16:17:40.164Z,12.40
2022-09-18T16:20:32.295Z,12.30
2022-09-18T16:23:04.451Z,12.20
2022-09-18T16:25:41.913Z,12.20
2022-09-18T16:28:26.245Z,12.10
2022-09-18T16:31:00.514Z,11.90
2022-09-18T16:33:36.977Z,12.00
2022-09-18T16:36:12.381Z,12.00
2022-09-18T16:38:45.891Z,11.80
2022-09-18T16:41:21.294Z,11.80
2022-09-18T16:43:56.289Z,11.70
2022-09-18T16:46:32.562Z,11.90
2022-09-18T16:49:11.866Z,11.80
2022-09-18T16:51:46.702Z,11.70
2022-09-18T16:54:23.783Z,11.70
2022-09-18T16:57:01.941Z,11.70
2022-09-18T16:59:36.449Z,11.70
2022-09-18T17:02:09.892Z,11.60
2022-09-18T17:04:48.907Z,11.50
2022-09-18T17:07:22.268Z,11.40
2022-09-18T17:09:58.642Z,11.40
2022-09-18T17:12:34.341Z,11.50
2022-09-18T17:15:10.687Z,11.40
2022-09-18T17:17:46.188Z,11.40
2022-09-18T17:20:22.393Z,11.40
2022-09-18T17:22:56.983Z,11.40
2022-09-18T17:25:30.757Z,11.40
2022-09-18T17:28:08.164Z,11.40
2022-09-18T17:30:45.115Z,11.30
2022-09-18T17:33:20.563Z,11.30
2022-09-18T17:35:56.080Z,11.30
2022-09-18T17:38:30.482Z,11.30
2022-09-18T17:41:09.082Z,11.20
2022-09-18T17:43:44.747Z,11.20
2022-09-18T17:46:20.073Z,11.10
2022-09-18T17:48:56.901Z,11.00
2022-09-18T17:51:34.942Z,11.00
2022-09-18T17:54:14.593Z,11.00
2022-09-18T17:56:50.562Z,10.80
2022-09-18T17:59:25.809Z,10.80
2022-09-18T18:02:01.306Z,10.80
2022-09-18T18:04:36.011Z,10.80
2022-09-18T18:07:13.392Z,10.70
2022-09-18T18:09:48.725Z,10.70
2022-09-18T18:12:21.770Z,10.60
2022-09-18T18:14:57.376Z,10.60
2022-09-18T18:17:36.333Z,10.60
2022-09-18T18:20:13.341Z,10.60
2022-09-18T18:22:48.686Z,10.60
2022-09-18T18:25:24.017Z,10.50
2022-09-18T18:27:58.574Z,10.60
2022-09-18T18:30:32.433Z,10.60
2022-09-18T18:33:06.294Z,10.50
2022-09-18T18:35:39.138Z,10.50
2022-09-18T18:38:14.631Z,10.50
2022-09-18T18:40:49.035Z,10.50
2022-09-18T18:43:23.421Z,10.50
2022-09-18T18:45:56.853Z,10.50
2022-09-18T18:48:34.173Z,10.50
2022-09-18T18:51:07.261Z,10.50
2022-09-18T18:53:43.714Z,10.50
2022-09-18T18:56:21.483Z,10.50
2022-09-18T18:58:58.384Z,10.50
2022-09-18T19:01:31.370Z,10.50
2022-09-18T19:04:06.837Z,10.50
2022-09-18T19:06:42.236Z,10.50
2022-09-18T19:09:20.538Z,10.50
2022-09-18T19:11:55.594Z,10.40
2022-09-18T19:14:32.114Z,10.50
2022-09-18T19:17:05.235Z,10.50
2022-09-18T19:19:37.907Z,10.50
2022-09-18T19:22:15.490Z,10.50
2022-09-18T19:24:52.855Z,10.50
2022-09-18T19:27:26.740Z,10.40
2022-09-18T19:30:00.863Z,10.50
2022-09-18T19:32:36.646Z,10.50
2022-09-18T19:35:11.364Z,10.50
2022-09-18T19:37:44.000Z,10.50
2022-09-18T19:40:21.531Z,10.50
2022-09-18T19:42:58.283Z,10.50
2022-09-18T19:45:33.750Z,10.50
2022-09-18T19:48:08.682Z,10.50
2022-09-18T19:50:43.650Z,10.50
2022-09-18T19:53:20.702Z,10.60
2022-09-18T19:55:59.413Z,10.50
2022-09-18T19:58:33.443Z,10.60
2022-09-18T20:01:14.765Z,10.50
2022-09-18T20:03:50.313Z,10.50
2022-09-18T20:06:29.400Z,10.50
2022-09-18T20:09:04.715Z,10.50
2022-09-18T20:11:45.346Z,10.40
2022-09-18T20:14:23.829Z,10.50
2022-09-18T20:16:58.097Z,10.40
2022-09-18T20:19:35.891Z,10.40
2022-09-18T20:22:08.580Z,10.40
2022-09-18T20:24:43.819Z,10.30
2022-09-18T20:27:21.100Z,10.40
2022-09-18T20:29:56.283Z,10.40
2022-09-18T20:32:39.004Z,10.40
2022-09-18T20:35:17.952Z,10.40
2022-09-18T20:37:53.487Z,10.40
2022-09-18T20:40:30.479Z,10.30
2022-09-18T20:43:09.174Z,10.30
2022-09-18T20:45:45.145Z,10.30
2022-09-18T20:48:27.403Z,10.40
2022-09-18T20:51:03.491Z,10.30
2022-09-18T20:53:41.160Z,10.30
2022-09-18T20:56:13.881Z,10.30
2022-09-18T20:58:57.919Z,10.30
2022-09-18T21:01:31.144Z,10.30
2022-09-18T21:04:06.061Z,10.30
2022-09-18T21:06:43.653Z,10.20
2022-09-18T21:09:19.265Z,10.20
2022-09-18T21:11:57.575Z,10.20
2022-09-18T21:14:32.039Z,10.10
2022-09-18T21:17:11.070Z,10.10
2022-09-18T21:19:50.349Z,10.10
2022-09-18T21:22:30.797Z,10.10
2022-09-18T21:25:11.163Z,10.10
2022-09-18T21:27:45.954Z,10.10
2022-09-18T21:30:32.493Z,10.00
2022-09-18T21:33:14.744Z,10.00
2022-09-18T21:35:58.289Z,9.90
2022-09-18T21:38:37.318Z,9.90
2022-09-18T21:41:16.316Z,9.90
2022-09-18T21:43:54.552Z,9.90
2022-09-18T21:46:38.621Z,9.80
2022-09-18T21:49:18.291Z,9.90
2022-09-18T21:51:54.147Z,9.90
2022-09-18T21:54:29.451Z,9.80
2022-09-18T21:57:09.199Z,9.80
2022-09-18T21:59:44.875Z,9.80
2022-09-18T22:02:23.592Z,9.80
2022-09-18T22:05:13.275Z,9.80
2022-09-18T22:07:49.819Z,9.80
2022-09-18T22:10:24.603Z,9.80
2022-09-18T22:13:00.482Z,9.70
2022-09-18T22:15:35.425Z,9.70
2022-09-18T22:18:13.059Z,9.70
2022-09-18T22:20:54.054Z,9.70
2022-09-18T22:23:27.907Z,9.70
2022-09-18T22:26:05.972Z,9.60
2022-09-18T22:28:40.435Z,9.60
2022-09-18T22:31:13.173Z,9.60
2022-09-18T22:33:46.345Z,9.50
2022-09-18T22:36:21.597Z,9.50
2022-09-18T22:38:56.032Z,9.50
2022-09-18T22:41:29.848Z,9.40
2022-09-18T22:44:03.808Z,9.40
2022-09-18T22:46:40.874Z,9.40
2022-09-18T22:49:15.888Z,9.30
2022-09-18T22:51:52.994Z,9.30
2022-09-18T22:54:27.248Z,9.30
2022-09-18T22:57:00.016Z,9.30
2022-09-18T22:59:33.944Z,9.20
2022-09-18T23:02:08.345Z,9.20
2022-09-18T23:04:41.158Z,9.20
2022-09-18T23:07:18.083Z,9.20
2022-09-18T23:09:51.740Z,9.20
2022-09-18T23:12:25.927Z,9.10
2022-09-18T23:14:59.698Z,9.20
2022-09-18T23:17:34.383Z,9.10
2022-09-18T23:20:06.284Z,9.10
2022-09-18T23:22:42.047Z,9.10
2022-09-18T23:25:16.041Z,9.10
2022-09-18T23:27:49.814Z,9.10
2022-09-18T23:30:25.535Z,9.10
2022-09-18T23:32:58.004Z,9.00
2022-09-18T23:35:31.812Z,9.00
2022-09-18T23:38:08.648Z,9.10
2022-09-18T23:40:43.468Z,9.00
2022-09-18T23:43:15.074Z,9.00
2022-09-18T23:45:49.306Z,9.00
2022-09-18T23:48:22.069Z,9.00
2022-09-18T23:50:54.326Z,9.00
2022-09-18T23:53:29.563Z,9.00
2022-09-18T23:56:05.111Z,8.90
2022-09-18T23:58:42.058Z,8.90
